Friday, April 27, 2018, 2:18 AM EDT
Back to Local

KPQI, Presque Isle

Location: Presque Isle, ME, United States Lat: 46.683
Local Time: 2:18 AM EDT ( 6:18 GMT) Lon: -68.05
Time Zone: US/Eastern Elev: 534 ft

Show me the last for .
Show Decoded

2018-04-27 01:22 METAR KPQI 270522Z AUTO 23007KT 10SM BKN015 OVC038 07/06 A2961 RMK AO2 =
2018-04-26 18:32 METAR KPQI 262232Z AUTO 22011KT 10SM OVC011 11/09 A2947 RMK AO2 =
2018-04-26 17:26 METAR KPQI 262126Z AUTO 19009KT 10SM BKN009 OVC017 11/11 A2945 RMK AO2 RAE23
                 P0001 =
2018-04-26 17:08 METAR KPQI 262108Z AUTO 21005KT 10SM -RA FEW009 BKN019 OVC055 11/11 A2944 RMK
                 AO2 P0001 =
2018-04-26 16:56 METAR KPQI 262056Z AUTO 19006KT 10SM -RA FEW011 OVC060 11/11 A2944 RMK AO2
                 SLP014 P0006 60026 T01110106 56010 =
2018-04-26 16:35 METAR KPQI 262035Z AUTO 19006KT 8SM RA FEW009 BKN041 OVC055 11/11 A2944 RMK AO2
                 P0004 =
2018-04-26 15:56 METAR KPQI 261956Z AUTO 20005KT 7SM -RA FEW012 BKN037 OVC045 12/11 A2945 RMK AO2
                 SLP015 P0010 T01170106 =
2018-04-26 15:28 METAR KPQI 261928Z AUTO 20006KT 7SM RA FEW008 SCT029 OVC040 12/11 A2945 RMK AO2
                 P0007 =
2018-04-26 15:18 METAR KPQI 261918Z AUTO 20008KT 4SM RA BR SCT010 BKN019 OVC036 12/11 A2945 RMK
                 AO2 P0006 =
2018-04-26 15:06 METAR KPQI 261906Z AUTO 18006KT 7SM RA SCT006 BKN013 OVC022 12/11 A2945 RMK AO2
                 P0003 =
2018-04-26 14:56 METAR KPQI 261856Z AUTO 17008KT 8SM RA BKN006 BKN011 OVC019 12/11 A2945 RMK AO2
                 SLP017 P0010 T01170106 =
2018-04-26 14:40 METAR KPQI 261840Z AUTO 17009KT 9SM RA BKN006 BKN027 OVC035 12/11 A2945 RMK AO2
                 CIG 005V009 P0008 =
2018-04-26 13:56 METAR KPQI 261756Z AUTO 12004KT 9SM -RA BKN008 OVC027 13/12 A2947 RMK AO2 CIG
                 006V011 SLP023 P0005 60006 T01280117 10133 20106 58033 =
2018-04-26 13:42 METAR KPQI 261742Z AUTO 14005KT 9SM -RA BKN008 BKN027 OVC035 12/11 A2947 RMK AO2
                 CIG 006V015 P0005 =
2018-04-26 13:27 METAR KPQI 261727Z AUTO 15006KT 8SM RA FEW008 BKN027 OVC040 12/11 A2949 RMK AO2
                 P0003 =
2018-04-26 13:13 METAR KPQI 261713Z AUTO 15009KT 10SM -RA BKN012 BKN027 OVC041 12/11 A2950 RMK
                 AO2 P0001 =
2018-04-26 13:04 METAR KPQI 261704Z AUTO 15006KT 9SM RA SCT012 BKN029 OVC042 13/12 A2950 RMK AO2
                 P0000 =
2018-04-26 12:56 METAR KPQI 261656Z AUTO 16007KT 10SM -RA BKN012 OVC029 13/12 A2951 RMK AO2
                 SLP035 P0001 T01280117 =
2018-04-26 12:14 METAR KPQI 261614Z AUTO 17006KT 10SM -RA OVC010 13/12 A2953 RMK AO2 CIG 007V012
                 P0000 =
2018-04-26 11:56 METAR KPQI 261556Z AUTO 16010KT 10SM -RA BKN008 OVC013 13/12 A2954 RMK AO2 RAB36
                 CIG 005V010 SLP048 P0000 T01280117 =
2018-04-26 11:05 METAR KPQI 261505Z AUTO 15010KT 10SM OVC008 13/12 A2956 RMK AO2 =
2018-04-26 10:56 METAR KPQI 261456Z AUTO 15011G16KT 10SM OVC010 13/11 A2957 RMK AO2 CIG 007V013
                 SLP057 60000 T01280111 56027 =
2018-04-26 10:31 METAR KPQI 261431Z AUTO 14011KT 10SM OVC010 13/11 A2958 RMK AO2 CIG 008V012 =
2018-04-26 09:56 METAR KPQI 261356Z AUTO 14013G18KT 10SM OVC008 13/11 A2959 RMK AO2 SLP065
                 T01280111 =
2018-04-26 08:56 METAR KPQI 261256Z AUTO 15011KT 10SM OVC006 11/11 A2962 RMK AO2 RAE37 SLP076
                 P0000 T01110106 =
2018-04-26 07:56 METAR KPQI 261156Z AUTO 15012G17KT 10SM -RA OVC006 11/10 A2965 RMK AO2 SLP085
                 P0002 60016 70037 T01060100 10106 20094 58016 =
2018-04-26 06:56 METAR KPQI 261056Z AUTO 15010KT 7SM RA OVC006 10/09 A2967 RMK AO2 SLP092 P0004
                 T01000094 =
2018-04-26 05:56 METAR KPQI 260956Z AUTO 15011KT 10SM -RA OVC008 10/09 A2968 RMK AO2 SLP095 P0002
                 T01000089 =
2018-04-26 05:29 METAR KPQI 260929Z AUTO 15007G15KT 10SM -RA OVC008 10/09 A2969 RMK AO2 P0001 =
2018-04-26 04:56 METAR KPQI 260856Z AUTO 14011G16KT 10SM -RA OVC010 10/09 A2970 RMK AO2 CIG
                 008V013 SLP099 P0004 60008 T01000089 56040 =
2018-04-26 03:56 METAR KPQI 260756Z AUTO 14011KT 10SM -RA OVC010 10/09 A2973 RMK AO2 CIG 007V012
                 SLP109 P0003 T01000089 =
2018-04-26 02:56 METAR KPQI 260656Z AUTO 13010KT 110V170 10SM -RA OVC010 09/08 A2977 RMK AO2
                 SLP122 P0001 T00940083 =

Support USWX by starting your Amazon purchase here.